Relevés horaires Laegern (Suisse)


Relevés horaires à Laegern - Jeudi 17 Juin 2021
Heure UTC1 Température [°C] Vent [km/h] Hum. [%] Pres.4 [hPa] Visi. [Km] Nébu. [octa] Préc.5 [mm] Cond.
2m. Res. Ros. Dir.2 Vit. Moy. Raf.3
23:00 23.0 23.0 11.6 N 0.0 -- 25.9 49 850(0.8/3h) -- -- -- --
22:00 24.6 24.6 9.7 NE 0.0 -- 25.9 39 850(0.6/3h) -- -- -- --
21:00 25.4 25.4 9.1 ENE 0.0 -- 31.5 36 850(0.3/3h) -- -- -- --
20:00 25.6 25.6 9.6 ENE 0.0 -- 27.8 36 850(0.1/3h) -- -- -- --
19:00 25.5 25.5 11.0 ENE 0.0 -- 31.5 40 850(-0.3/3h) -- -- -- --
18:00 25.9 25.9 12.5 ENE 0.0 -- 24.1 43 850(-0.8/3h) -- -- -- --
17:00 26.2 26.2 12.1 NE 0.0 -- 22.2 42 850(-1.2/3h) -- -- -- --
16:00 26.4 26.4 12.3 NNE 0.0 -- 20.4 42 850(-1.1/3h) -- -- -- --
15:00 26.2 26.2 13.4 NE 0.0 -- 16.7 45 850(-0.9/3h) -- -- -- --
14:00 25.8 25.8 13.6 NNE 0.0 -- 13.0 47 850(-0.8/3h) -- -- -- --
13:00 25.4 25.4 14.6 NNO 0.0 -- 13.0 51 850(-0.5/3h) -- -- -- --
12:00 24.7 24.7 14.2 NO 0.0 -- 18.5 52 850(-0.2/3h) -- -- -- --
11:00 25.3 25.3 15.9 S 0.0 -- 13.0 56 850(0.2/3h) -- -- -- --
10:00 24.6 24.6 16.5 ONO 0.0 -- 14.8 61 850(0.3/3h) -- -- -- --
09:00 22.3 22.3 14.9 SO 0.0 -- 18.5 63 850(0.9/3h) -- -- -- --
08:00 21.3 21.3 13.3 O 0.0 -- 14.8 60 850(1.1/3h) -- -- -- --
07:00 20.5 20.5 12.9 OSO 0.0 -- 18.5 62 850(1.3/3h) -- -- -- --
06:00 20.3 20.3 11.2 S 0.0 -- 25.9 56 850(0.9/3h) -- -- -- --
05:00 20.2 20.2 11.0 SSE 0.0 -- 14.8 55 850(0.8/3h) -- -- -- --
04:00 21.7 21.7 10.5 SE 0.0 -- 16.7 49 850(0.3/3h) -- -- -- --
03:00 21.5 21.5 10.6 SSE 0.0 -- 25.9 50 850(-0.4/3h) -- -- -- --
02:00 21.9 21.9 10.6 SE 0.0 -- 25.9 49 850(-1.0/3h) -- -- -- --
01:00 22.0 22.0 10.9 SE 0.0 -- 20.4 49 850(-0.9/3h) -- -- -- --
00:00 22.5 22.5 10.9 SE 0.0 -- 18.5 48 850(-0.4/3h) -- -- -- --

1 Coordinated Universal Time. Actuellement il est 12:00 locale et 10:00 UTC.

2 Le vent souffle depuis la direction indiquée vers la direction oposée.

3 Les rafales max. sont disponible 40 min après l'heure du relevé.

4 Pour les stations d'altitude (plus de 600m) le géopotentiel du niveau le plus proche de la pression obligatoire est indiqué.

5 Les stations disposant d'un diffuseur peuvent indiquer "trace". Cela signifie que des précipitations ont touchés le sol mais que la quantité est inférieure à 0.1 mm.

Copyright

Les données affichées sur cette page sont la propriété exclusive de Météo Suisse.

Récapitulatif de la journée
Température [°C] Vent [km/h] Ensoleillement4 [h] Precipitations totale5 [mm] Pression [Hpa]
Min1 Max.2 Moy.3 Max. Min Max.
19.6 26.4 0 31.5 14 h 24 min 0 850.0 850.0

1 Température minimale relevée entre 18:00 UTC la veille et 18:00 UTC le jour donné.

2 Température maximale relevée entre 06:00 UTC le jour donné et 06:00 UTC le lendemain.

3 Vent moyen de la journée basé sur les relevés horaires.

4 Ensoleillement en heures relevé entre 06:00 UTC la veille et 06:00 UTC le jour donné.

5 Précipitations totales tombées entre 06:00 UTC la jour donné et 06:00 UTC le lendemain.

Graphiques horaires